Time;durP1;ratioP1;P1;durP2;ratioP2;P2;SDS_P1;SDS_P2;PMS_P1;PMS_P2;Temp;Humidity;BMP_temperature;BMP_pressure;BME280_temperature;BME280_humidity;BME280_pressure;Samples;Min_cycle;Max_cycle;Signal;HPM_P1;HPM_P2
2022/01/15 00:04:18;;;;;;;316.25;251.95;;;19.80;42.40;;;;;;4765212;55;21077;-35
2022/01/15 00:09:19;;;;;;;314.55;250.30;;;19.80;42.50;;;;;;4738788;55;21323;-35
2022/01/15 00:14:32;;;;;;;312.92;250.07;;;19.80;42.40;;;;;;4778960;55;21477;-32
2022/01/15 00:19:41;;;;;;;315.95;250.18;;;19.80;42.40;;;;;;4759371;55;21089;-35
2022/01/15 00:24:43;;;;;;;313.65;245.37;;;19.80;42.40;;;;;;4767084;55;21551;-36
2022/01/15 00:29:44;;;;;;;315.83;249.77;;;19.80;42.30;;;;;;4762279;55;21148;-34
2022/01/15 00:34:45;;;;;;;320.58;250.93;;;19.80;42.20;;;;;;4750103;55;21900;-36
2022/01/15 00:39:46;;;;;;;317.83;247.27;;;19.80;42.30;;;;;;4755173;55;21065;-36
2022/01/15 00:44:49;;;;;;;323.92;251.88;;;19.80;42.20;;;;;;4737990;59;21136;-35
2022/01/15 00:49:50;;;;;;;310.42;241.93;;;19.80;42.20;;;;;;4760775;55;21060;-37
2022/01/15 00:54:51;;;;;;;323.85;251.65;;;19.80;42.10;;;;;;4741964;55;21081;-35
2022/01/15 00:59:52;;;;;;;309.73;248.77;;;19.80;42.10;;;;;;4781629;55;21074;-34
2022/01/15 01:04:53;;;;;;;313.85;245.02;;;19.80;42.00;;;;;;4779068;55;21514;-35
2022/01/15 01:23:46;;;;;;;314.20;244.40;;;19.80;42.00;;;;;;4738141;55;21113;-36
2022/01/15 01:28:55;;;;;;;313.17;245.30;;;19.80;41.90;;;;;;4745192;55;21564;-36
2022/01/15 01:34:08;;;;;;;315.50;247.32;;;19.80;41.90;;;;;;4742211;55;21014;-35
2022/01/15 01:39:15;;;;;;;305.50;237.48;;;19.80;42.40;;;;;;4739221;55;21089;-34
2022/01/15 01:44:18;;;;;;;307.10;239.00;;;19.70;41.80;;;;;;4755620;55;22423;-34
2022/01/15 01:49:19;;;;;;;303.48;239.52;;;19.80;41.70;;;;;;4763680;55;21564;-36
2022/01/15 01:54:20;;;;;;;310.92;240.27;;;19.80;41.70;;;;;;4741639;55;21111;-35
2022/01/15 01:59:21;;;;;;;309.12;239.70;;;19.80;41.70;;;;;;4782485;55;21006;-36
2022/01/15 02:04:22;;;;;;;306.92;234.65;;;19.80;41.70;;;;;;4765997;55;21554;-35
2022/01/15 02:09:25;;;;;;;293.05;228.68;;;19.70;41.60;;;;;;4780286;55;21456;-35
2022/01/15 02:14:30;;;;;;;306.40;234.75;;;19.70;41.50;;;;;;4737341;59;21073;-35
2022/01/15 02:19:45;;;;;;;297.65;230.93;;;19.70;42.10;;;;;;4758640;55;21001;-35
2022/01/15 02:24:48;;;;;;;300.65;231.30;;;19.70;41.60;;;;;;4737113;59;21583;-37
2022/01/15 02:29:49;;;;;;;299.33;228.65;;;19.70;41.40;;;;;;4745316;55;21061;-36
2022/01/15 02:34:49;;;;;;;294.00;232.70;;;19.70;41.40;;;;;;4738383;55;21510;-36
2022/01/15 02:39:50;;;;;;;300.35;233.87;;;19.70;41.30;;;;;;4747706;55;21058;-37
2022/01/15 02:44:58;;;;;;;296.85;227.70;;;19.70;41.40;;;;;;4737634;59;21479;-35
2022/01/15 02:49:59;;;;;;;295.12;228.07;;;19.70;41.40;;;;;;4738542;56;21496;-34
2022/01/15 02:55:00;;;;;;;299.20;229.90;;;19.70;41.30;;;;;;4788562;55;21026;-35
2022/01/15 03:00:01;;;;;;;293.12;229.57;;;19.70;41.30;;;;;;4757215;55;21543;-38
2022/01/15 03:05:03;;;;;;;288.67;224.00;;;19.70;41.70;;;;;;4762764;55;20990;-36
2022/01/15 03:10:05;;;;;;;282.92;216.98;;;19.70;41.20;;;;;;4762660;55;21202;-37
2022/01/15 03:15:08;;;;;;;279.70;213.45;;;19.70;41.20;;;;;;4753892;55;21014;-36
2022/01/15 03:20:10;;;;;;;294.23;224.00;;;19.70;41.10;;;;;;4762753;55;21507;-35
2022/01/15 03:25:12;;;;;;;281.33;215.48;;;19.70;41.20;;;;;;4741938;55;21097;-34
2022/01/15 03:30:13;;;;;;;288.12;219.65;;;19.70;41.10;;;;;;4774083;55;21025;-36
2022/01/15 03:35:17;;;;;;;280.45;215.23;;;19.60;41.00;;;;;;4738375;59;21164;-39
2022/01/15 03:40:17;;;;;;;283.90;213.20;;;19.60;41.00;;;;;;4750331;55;21504;-39
2022/01/15 03:45:18;;;;;;;279.48;210.38;;;19.60;41.00;;;;;;4753354;55;21038;-38
2022/01/15 03:50:19;;;;;;;270.52;207.43;;;19.60;41.00;;;;;;4753576;55;21653;-38
2022/01/15 03:55:21;;;;;;;277.40;213.75;;;19.60;40.90;;;;;;4768328;55;21523;-36
2022/01/15 04:00:24;;;;;;;277.73;212.30;;;19.60;40.80;;;;;;4753415;55;21531;-38
2022/01/15 04:05:25;;;;;;;272.88;208.18;;;19.60;40.90;;;;;;4758546;55;21567;-38
2022/01/15 04:10:26;;;;;;;272.80;212.00;;;19.60;40.80;;;;;;4749800;55;21571;-37
2022/01/15 04:15:27;;;;;;;267.95;205.15;;;19.60;40.80;;;;;;4742196;55;21018;-36
2022/01/15 04:20:28;;;;;;;267.25;205.87;;;19.60;40.80;;;;;;4750497;55;21002;-37
2022/01/15 04:25:29;;;;;;;267.35;206.02;;;19.60;40.80;;;;;;4794907;55;21077;-33
2022/01/15 04:30:30;;;;;;;261.48;201.27;;;19.60;40.60;;;;;;4752120;55;21065;-37
2022/01/15 04:35:31;;;;;;;255.68;194.32;;;19.60;40.80;;;;;;4751005;55;21102;-38
2022/01/15 04:40:32;;;;;;;256.55;196.48;;;19.60;40.70;;;;;;4738207;59;21045;-37
2022/01/15 04:45:33;;;;;;;252.65;194.10;;;19.60;40.70;;;;;;4786126;55;21061;-34
2022/01/15 04:50:33;;;;;;;254.20;191.35;;;19.60;40.70;;;;;;4744036;55;21017;-37
2022/01/15 04:55:35;;;;;;;258.33;198.35;;;19.60;40.70;;;;;;4802952;55;21030;-38
2022/01/15 05:00:36;;;;;;;244.57;182.32;;;19.60;40.80;;;;;;4738492;59;21706;-34
2022/01/15 05:05:37;;;;;;;251.88;190.00;;;19.50;40.70;;;;;;4759203;55;21150;-37
2022/01/15 05:10:45;;;;;;;249.55;191.05;;;19.60;40.80;;;;;;4739273;55;21588;-37
2022/01/15 05:15:45;;;;;;;;;;;19.50;40.80;;;;;;4747261;55;21539;-37
2022/01/15 05:20:46;;;;;;;236.25;182.30;;;19.60;40.80;;;;;;4744522;55;20160;-38
2022/01/15 05:25:47;;;;;;;241.12;182.45;;;19.50;40.80;;;;;;4741616;55;21021;-35
2022/01/15 05:30:48;;;;;;;241.52;185.00;;;19.50;40.80;;;;;;4744118;55;21049;-37
2022/01/15 05:35:49;;;;;;;233.73;180.40;;;19.50;40.80;;;;;;4746861;55;21013;-38
2022/01/15 05:40:49;;;;;;;234.30;177.30;;;19.50;40.80;;;;;;4747491;55;21049;-34
2022/01/15 05:45:50;;;;;;;233.55;175.38;;;19.50;40.80;;;;;;4799170;55;21499;-37
2022/01/15 05:50:51;;;;;;;223.98;168.05;;;19.50;40.80;;;;;;4754742;55;21018;-37
2022/01/15 05:55:52;;;;;;;224.10;169.23;;;19.60;40.90;;;;;;4746138;55;21369;-35
2022/01/15 06:00:53;;;;;;;222.00;167.77;;;19.50;40.90;;;;;;4763865;55;22232;-37
2022/01/15 06:05:54;;;;;;;227.38;172.82;;;19.50;41.00;;;;;;4749376;55;21006;-37
2022/01/15 06:10:54;;;;;;;218.95;167.10;;;19.50;41.00;;;;;;4750297;55;21583;-37
2022/01/15 06:15:55;;;;;;;224.62;170.23;;;19.50;41.00;;;;;;4746619;55;21009;-34
2022/01/15 06:20:56;;;;;;;217.15;167.25;;;19.50;41.00;;;;;;4751349;55;21006;-39
2022/01/15 06:25:57;;;;;;;217.05;162.52;;;19.50;41.10;;;;;;4745789;55;21050;-38
2022/01/15 06:30:58;;;;;;;217.07;164.02;;;19.50;41.00;;;;;;4739707;55;21519;-39
2022/01/15 06:36:00;;;;;;;211.35;161.15;;;19.50;41.00;;;;;;4756590;55;21022;-38
2022/01/15 06:41:00;;;;;;;208.38;151.90;;;19.50;41.00;;;;;;4753695;55;21098;-37
2022/01/15 06:46:01;;;;;;;213.02;158.82;;;19.50;41.10;;;;;;4740817;55;21468;-37
2022/01/15 06:51:02;;;;;;;210.05;161.30;;;19.50;41.00;;;;;;4737648;59;21053;-36
2022/01/15 06:56:04;;;;;;;212.88;161.00;;;19.50;41.00;;;;;;4737649;55;21604;-37
2022/01/15 07:01:06;;;;;;;203.55;153.18;;;19.50;40.90;;;;;;4747184;55;21094;-36
2022/01/15 07:06:08;;;;;;;210.00;158.00;;;19.50;41.00;;;;;;4738719;59;21046;-37
2022/01/15 07:11:08;;;;;;;205.27;154.23;;;19.50;41.00;;;;;;4738213;59;21014;-34
2022/01/15 07:16:09;;;;;;;200.68;152.32;;;19.50;40.90;;;;;;4737812;55;21555;-35
2022/01/15 07:21:10;;;;;;;203.10;156.82;;;19.50;41.00;;;;;;4776096;55;21022;-39
2022/01/15 07:26:11;;;;;;;201.68;153.30;;;19.50;40.90;;;;;;4742130;55;21017;-36
2022/01/15 07:31:12;;;;;;;200.95;153.38;;;19.50;41.00;;;;;;4737495;59;21049;-38
2022/01/15 07:36:13;;;;;;;192.07;147.32;;;19.50;40.90;;;;;;4753950;55;21498;-38
2022/01/15 07:41:14;;;;;;;197.93;149.98;;;19.50;40.90;;;;;;4753358;55;21006;-39
2022/01/15 07:46:15;;;;;;;193.90;147.37;;;19.50;40.90;;;;;;4765903;55;21582;-35
2022/01/15 07:51:16;;;;;;;201.45;151.68;;;19.50;40.90;;;;;;4760801;55;21084;-35
2022/01/15 07:56:16;;;;;;;197.62;150.32;;;19.50;40.90;;;;;;4737756;59;21781;-37
2022/01/15 08:01:19;;;;;;;197.00;150.38;;;19.50;40.80;;;;;;4755474;55;20997;-36
2022/01/15 08:06:20;;;;;;;195.75;149.85;;;19.50;40.90;;;;;;4755261;55;21026;-37
2022/01/15 08:11:21;;;;;;;198.10;151.75;;;19.50;40.80;;;;;;4764928;55;21987;-32
2022/01/15 08:16:22;;;;;;;193.30;148.70;;;19.40;40.80;;;;;;4753230;55;21034;-34
2022/01/15 08:21:22;;;;;;;200.85;152.02;;;19.50;40.80;;;;;;4757397;55;22533;-37
2022/01/15 08:26:23;;;;;;;196.95;148.40;;;19.40;40.90;;;;;;4737972;59;21065;-34
2022/01/15 08:31:24;;;;;;;201.30;152.20;;;19.50;40.90;;;;;;4741581;55;21523;-35
2022/01/15 08:36:25;;;;;;;201.52;155.65;;;19.40;40.70;;;;;;4758929;55;20998;-39
2022/01/15 08:41:28;;;;;;;201.30;152.85;;;19.50;40.90;;;;;;4761521;55;21460;-36
2022/01/15 08:46:29;;;;;;;202.50;154.18;;;19.40;40.80;;;;;;4739592;55;21107;-37
2022/01/15 08:51:30;;;;;;;198.27;151.63;;;19.50;40.90;;;;;;4814569;55;21441;-37
2022/01/15 08:56:31;;;;;;;190.23;145.05;;;19.40;40.90;;;;;;4747793;55;21134;-37
2022/01/15 09:01:32;;;;;;;201.70;152.68;;;19.40;40.80;;;;;;4737283;59;20986;-36
2022/01/15 09:06:33;;;;;;;206.13;158.50;;;19.50;40.90;;;;;;4807179;55;22045;-37
2022/01/15 09:11:34;;;;;;;205.23;156.00;;;19.50;40.90;;;;;;4754339;55;21022;-36
2022/01/15 09:16:35;;;;;;;210.02;159.50;;;19.50;40.90;;;;;;4737148;55;21097;-31
2022/01/15 09:21:37;;;;;;;213.00;160.82;;;19.40;40.90;;;;;;4758071;55;21034;-37
2022/01/15 09:35:11;;;;;;;209.80;159.95;;;19.40;40.90;;;;;;4772485;55;21022;-44
2022/01/15 09:40:13;;;;;;;205.85;156.70;;;19.40;40.90;;;;;;4737602;59;21009;-37
2022/01/15 09:45:16;;;;;;;203.32;157.73;;;19.40;40.90;;;;;;4767769;55;21002;-38
2022/01/15 09:50:18;;;;;;;216.18;164.00;;;19.40;40.90;;;;;;4753600;55;21014;-37
2022/01/15 09:55:21;;;;;;;213.52;163.52;;;19.40;41.00;;;;;;4755606;55;20998;-34
2022/01/15 10:00:24;;;;;;;218.73;166.85;;;19.40;40.90;;;;;;4738520;55;21471;-36
2022/01/15 10:05:25;;;;;;;227.13;170.68;;;19.40;40.90;;;;;;4762480;55;21117;-33
2022/01/15 10:10:28;;;;;;;224.93;167.52;;;19.40;40.90;;;;;;4753647;55;21523;-31
2022/01/15 10:15:29;;;;;;;218.55;168.90;;;19.40;40.90;;;;;;4741894;55;21085;-33
2022/01/15 10:20:35;;;;;;;229.95;177.68;;;19.40;40.90;;;;;;4759959;55;21078;-36
2022/01/15 10:25:37;;;;;;;240.32;182.35;;;19.40;41.00;;;;;;4750923;55;21595;-34
2022/01/15 10:30:41;;;;;;;240.05;185.75;;;19.40;41.00;;;;;;4762738;55;21503;-36
2022/01/15 10:35:43;;;;;;;242.27;191.32;;;19.40;41.00;;;;;;4747221;55;21484;-34
2022/01/15 10:40:53;;;;;;;250.95;193.70;;;19.40;41.70;;;;;;4760329;55;21579;-34
2022/01/15 10:46:01;;;;;;;247.43;193.07;;;19.40;41.00;;;;;;4744789;55;21091;-39
2022/01/15 10:51:05;;;;;;;;;;;19.40;41.10;;;;;;4754845;55;21050;-38
2022/01/15 10:56:12;;;;;;;258.08;202.80;;;19.40;41.10;;;;;;4744635;55;20095;-35
2022/01/15 11:01:24;;;;;;;261.92;202.98;;;19.40;41.10;;;;;;4777252;55;21133;-36
2022/01/15 11:06:39;;;;;;;250.10;194.40;;;19.40;41.10;;;;;;4759473;55;21074;-35
2022/01/15 11:11:55;;;;;;;272.52;214.68;;;19.40;41.10;;;;;;4752418;55;21121;-38
2022/01/15 11:16:59;;;;;;;262.67;208.43;;;19.40;41.20;;;;;;4750950;55;21488;-39
2022/01/15 11:22:01;;;;;;;277.62;224.07;;;19.40;41.20;;;;;;4760583;55;21504;-34
2022/01/15 11:27:02;;;;;;;272.45;214.98;;;19.40;41.20;;;;;;4759718;55;21558;-36
2022/01/15 11:32:04;;;;;;;276.80;213.48;;;19.40;41.30;;;;;;4762548;55;21002;-32
2022/01/15 11:37:16;;;;;;;285.52;228.55;;;19.40;41.30;;;;;;4757211;55;21013;-37
2022/01/15 11:42:35;;;;;;;290.62;230.25;;;19.40;41.40;;;;;;4767300;55;21495;-34
2022/01/15 11:47:36;;;;;;;294.05;233.18;;;19.40;41.30;;;;;;4739938;55;21009;-35
2022/01/15 11:52:38;;;;;;;279.77;219.82;;;19.40;41.40;;;;;;4764332;55;21438;-33
2022/01/15 11:57:48;;;;;;;296.12;238.40;;;19.40;41.40;;;;;;4761323;55;21552;-35
2022/01/15 12:03:04;;;;;;;299.35;237.85;;;19.40;41.50;;;;;;4757086;55;21046;-38
2022/01/15 12:08:30;;;;;;;296.92;237.75;;;19.40;41.50;;;;;;4754705;55;20985;-38
2022/01/15 12:13:42;;;;;;;300.42;239.43;;;19.40;41.50;;;;;;4772397;55;21566;-34
2022/01/15 12:18:48;;;;;;;311.45;250.45;;;19.40;41.60;;;;;;4778527;55;21038;-38
2022/01/15 12:23:49;;;;;;;307.83;241.57;;;19.40;41.60;;;;;;4746332;55;21032;-33
2022/01/15 12:28:50;;;;;;;313.87;251.88;;;19.40;41.60;;;;;;4756665;55;21518;-34
2022/01/15 12:33:51;;;;;;;324.60;263.37;;;19.40;41.70;;;;;;4762823;55;21477;-38
2022/01/15 12:38:52;;;;;;;322.70;259.65;;;19.40;41.70;;;;;;4794865;55;21041;-37
2022/01/15 12:43:54;;;;;;;336.48;267.92;;;19.40;41.70;;;;;;4753245;55;21081;-35
2022/01/15 12:49:02;;;;;;;329.27;266.52;;;19.40;41.80;;;;;;4761740;55;21081;-35
2022/01/15 12:54:02;;;;;;;;;;;19.40;41.90;;;;;;4779841;55;21457;-38
2022/01/15 12:59:03;;;;;;;345.52;271.35;;;19.40;41.80;;;;;;4751686;55;20061;-37
2022/01/15 13:04:11;;;;;;;346.73;276.98;;;19.40;41.90;;;;;;4813297;55;22245;-34
2022/01/15 13:09:12;;;;;;;349.62;281.10;;;19.40;41.90;;;;;;4768983;55;21010;-36
2022/01/15 13:14:13;;;;;;;358.83;286.48;;;19.40;42.00;;;;;;4738934;55;21468;-37
2022/01/15 13:19:14;;;;;;;347.98;282.75;;;19.40;42.00;;;;;;4742247;55;21076;-37
2022/01/15 13:24:15;;;;;;;352.52;283.83;;;19.40;42.00;;;;;;4769186;55;21022;-33
2022/01/15 13:29:22;;;;;;;349.85;284.10;;;19.40;42.00;;;;;;4755854;55;21560;-38
2022/01/15 13:34:32;;;;;;;350.83;283.77;;;19.40;42.10;;;;;;4803475;55;21467;-35
2022/01/15 13:39:34;;;;;;;360.65;288.55;;;19.40;42.10;;;;;;4759032;55;21532;-37
2022/01/15 13:44:35;;;;;;;369.20;293.88;;;19.40;42.20;;;;;;4761526;55;21523;-35
2022/01/15 13:55:07;;;;;;;372.50;298.65;;;19.40;42.20;;;;;;4763930;55;22024;-37
2022/01/15 14:00:18;;;;;;;366.73;293.50;;;19.40;42.20;;;;;;4747145;55;21033;-38
2022/01/15 14:05:23;;;;;;;374.27;301.08;;;19.40;42.30;;;;;;4739978;55;21037;-37
2022/01/15 14:10:26;;;;;;;372.92;291.50;;;19.40;42.30;;;;;;4745045;55;21009;-34
2022/01/15 14:15:38;;;;;;;366.95;295.58;;;19.40;42.30;;;;;;4748734;55;21018;-36
2022/01/15 14:20:54;;;;;;;369.13;294.25;;;19.40;42.30;;;;;;4752725;55;21093;-38
2022/01/15 14:25:55;;;;;;;372.15;294.92;;;19.40;42.40;;;;;;4782018;55;21094;-32
2022/01/15 14:30:56;;;;;;;379.08;302.02;;;19.40;41.90;;;;;;4760019;55;20986;-37
2022/01/15 14:35:58;;;;;;;368.58;295.15;;;19.40;42.40;;;;;;4738874;55;21484;-33
2022/01/15 14:40:59;;;;;;;381.92;304.30;;;19.40;42.40;;;;;;4780341;55;21476;-38
2022/01/15 14:46:02;;;;;;;384.87;305.50;;;19.50;42.60;;;;;;4784046;55;21364;-34
2022/01/15 14:51:04;;;;;;;371.73;297.10;;;19.40;42.50;;;;;;4781099;55;22930;-39
2022/01/15 14:56:05;;;;;;;381.08;307.95;;;19.40;42.50;;;;;;4768180;55;21524;-29
2022/01/15 15:01:06;;;;;;;381.60;305.50;;;19.40;42.50;;;;;;4768651;55;21049;-37
2022/01/15 15:06:07;;;;;;;361.10;292.37;;;19.40;42.50;;;;;;4754162;55;21076;-34
2022/01/15 15:11:11;;;;;;;370.75;303.00;;;19.40;42.60;;;;;;4750341;55;21034;-37
2022/01/15 15:16:14;;;;;;;371.15;297.35;;;19.50;42.70;;;;;;4749870;55;21041;-37
2022/01/15 15:21:15;;;;;;;376.35;301.52;;;19.50;42.70;;;;;;4775706;55;21460;-37
2022/01/15 15:26:20;;;;;;;377.95;305.85;;;19.40;42.60;;;;;;4744463;55;21022;-35
2022/01/15 15:31:21;;;;;;;368.98;297.73;;;19.40;42.60;;;;;;4754344;55;21467;-39
2022/01/15 15:36:22;;;;;;;366.20;297.65;;;19.40;42.60;;;;;;4748214;55;21078;-38
2022/01/15 15:41:22;;;;;;;370.65;301.58;;;19.40;42.70;;;;;;4738309;55;21026;-38
2022/01/15 15:46:23;;;;;;;374.25;300.08;;;19.50;42.80;;;;;;4744828;55;21491;-34
2022/01/15 15:51:25;;;;;;;366.60;301.85;;;19.40;42.70;;;;;;4745026;55;21022;-39
2022/01/15 15:56:26;;;;;;;365.25;292.13;;;19.40;42.70;;;;;;4738697;55;21045;-35
2022/01/15 16:01:27;;;;;;;367.37;294.45;;;19.40;42.80;;;;;;4743660;55;21002;-39
2022/01/15 16:06:28;;;;;;;362.73;291.73;;;19.40;42.70;;;;;;4776737;55;21090;-38
2022/01/15 16:11:29;;;;;;;368.23;295.63;;;19.40;43.40;;;;;;4739150;55;21089;-38
2022/01/15 16:16:30;;;;;;;372.37;298.15;;;19.50;42.90;;;;;;4753528;55;21031;-38
2022/01/15 16:21:31;;;;;;;357.58;289.02;;;19.50;42.90;;;;;;4743212;55;21485;-37
2022/01/15 16:26:34;;;;;;;370.88;296.27;;;19.40;42.90;;;;;;4739753;55;21480;-37
2022/01/15 16:31:35;;;;;;;358.70;289.77;;;19.50;42.90;;;;;;4737822;59;21551;-38
2022/01/15 16:36:36;;;;;;;368.40;297.17;;;19.40;42.90;;;;;;4745654;55;21038;-37
2022/01/15 16:41:37;;;;;;;362.92;293.92;;;19.40;42.90;;;;;;4737881;59;21476;-36
2022/01/15 16:46:38;;;;;;;362.40;295.40;;;19.40;42.90;;;;;;4754025;55;21559;-37
2022/01/15 16:51:38;;;;;;;366.17;294.48;;;19.50;43.00;;;;;;4739029;59;21073;-39
2022/01/15 16:56:39;;;;;;;358.08;290.17;;;19.50;43.00;;;;;;4762948;55;21533;-37
2022/01/15 17:01:40;;;;;;;361.27;289.55;;;19.40;43.00;;;;;;4751836;55;21010;-35
2022/01/15 17:06:41;;;;;;;359.23;293.45;;;19.40;43.00;;;;;;4773051;55;21014;-38
2022/01/15 17:11:42;;;;;;;355.33;288.62;;;19.40;43.00;;;;;;4746368;55;21571;-36
2022/01/15 17:16:43;;;;;;;351.85;283.23;;;19.40;43.00;;;;;;4772286;55;21087;-37
2022/01/15 17:21:44;;;;;;;350.17;280.55;;;19.40;43.00;;;;;;4766072;55;21500;-38
2022/01/15 17:26:45;;;;;;;353.55;284.73;;;19.50;43.00;;;;;;4739064;55;21010;-35
2022/01/15 17:31:46;;;;;;;345.52;279.15;;;19.40;43.00;;;;;;4747824;55;21103;-38
2022/01/15 17:36:47;;;;;;;343.37;282.50;;;19.40;43.00;;;;;;4774233;55;21062;-39
2022/01/15 17:41:48;;;;;;;345.17;283.92;;;19.40;43.00;;;;;;4738309;55;21018;-37
2022/01/15 17:46:49;;;;;;;335.98;273.58;;;19.40;43.20;;;;;;4751412;55;21584;-38
2022/01/15 17:51:50;;;;;;;348.10;283.52;;;19.40;43.00;;;;;;4737566;59;21010;-38
2022/01/15 17:56:51;;;;;;;349.73;281.87;;;19.40;43.10;;;;;;4737138;59;21256;-37
2022/01/15 18:01:52;;;;;;;347.58;282.87;;;19.40;43.00;;;;;;4777247;55;21491;-35
2022/01/15 18:06:56;;;;;;;334.20;276.00;;;19.40;43.00;;;;;;4738106;59;21006;-38
2022/01/15 18:11:58;;;;;;;349.52;282.58;;;19.40;43.00;;;;;;4745544;55;21030;-35
2022/01/15 18:16:59;;;;;;;346.70;283.00;;;19.40;43.00;;;;;;4752461;55;21059;-38
2022/01/15 18:22:01;;;;;;;339.52;275.52;;;19.40;43.00;;;;;;4737930;59;21539;-36
2022/01/15 18:27:03;;;;;;;343.25;276.08;;;19.40;43.00;;;;;;4746968;55;21138;-38
2022/01/15 18:32:05;;;;;;;350.85;281.73;;;19.40;43.00;;;;;;4775448;55;21512;-36
2022/01/15 18:37:06;;;;;;;339.77;276.00;;;19.40;43.00;;;;;;4811238;55;21014;-36
2022/01/15 18:42:08;;;;;;;337.08;273.08;;;19.40;43.00;;;;;;4757629;55;21070;-36
2022/01/15 18:47:09;;;;;;;329.40;263.15;;;19.40;42.90;;;;;;4750226;55;21531;-39
2022/01/15 18:52:10;;;;;;;337.15;274.60;;;19.40;42.90;;;;;;4765035;55;21033;-35
2022/01/15 18:57:11;;;;;;;333.95;272.92;;;19.40;42.90;;;;;;4740861;55;21081;-38
2022/01/15 19:02:12;;;;;;;340.95;276.05;;;19.40;42.90;;;;;;4775337;55;21017;-39
2022/01/15 19:07:13;;;;;;;334.58;270.35;;;19.40;42.90;;;;;;4766846;55;21042;-36
2022/01/15 19:12:14;;;;;;;338.98;273.48;;;19.40;42.90;;;;;;4777912;55;21508;-39
2022/01/15 19:17:15;;;;;;;339.60;274.55;;;19.40;42.80;;;;;;4794201;55;21073;-37
2022/01/15 19:22:16;;;;;;;339.65;271.58;;;19.40;42.80;;;;;;4755100;55;21529;-37
2022/01/15 19:27:16;;;;;;;335.63;270.40;;;19.40;42.80;;;;;;4756691;55;21006;-36
2022/01/15 19:32:20;;;;;;;334.00;269.35;;;19.40;42.80;;;;;;4749594;55;21046;-39
2022/01/15 19:37:21;;;;;;;333.42;270.85;;;19.40;42.70;;;;;;4742927;55;21104;-37
2022/01/15 19:42:22;;;;;;;337.75;268.45;;;19.40;42.80;;;;;;4740589;55;21065;-38
2022/01/15 19:47:23;;;;;;;342.73;275.05;;;19.40;42.70;;;;;;4747300;55;21069;-37
2022/01/15 19:52:24;;;;;;;340.52;276.75;;;19.40;42.70;;;;;;4788236;55;21927;-39
2022/01/15 19:57:25;;;;;;;338.98;270.80;;;19.40;42.70;;;;;;4747849;55;21026;-39
2022/01/15 20:02:26;;;;;;;330.25;268.05;;;19.40;42.70;;;;;;4739866;55;21576;-38
2022/01/15 20:07:27;;;;;;;341.20;273.80;;;19.40;42.60;;;;;;4769243;55;21019;-36
2022/01/15 20:12:28;;;;;;;332.25;268.60;;;19.40;42.00;;;;;;4742302;55;21504;-38
2022/01/15 20:17:29;;;;;;;337.20;273.45;;;19.40;42.60;;;;;;4738168;55;21523;-40
2022/01/15 20:22:30;;;;;;;328.90;267.02;;;19.40;42.50;;;;;;4738683;55;21057;-38
2022/01/15 20:27:31;;;;;;;329.40;265.45;;;19.40;42.50;;;;;;4743190;55;21038;-39
2022/01/15 20:32:32;;;;;;;332.42;270.30;;;19.40;42.50;;;;;;4739144;55;21017;-37
2022/01/15 20:37:34;;;;;;;336.87;271.62;;;19.40;42.50;;;;;;4761638;55;21065;-36
2022/01/15 20:42:38;;;;;;;330.23;265.95;;;19.40;42.40;;;;;;4762246;55;21035;-38
2022/01/15 20:47:45;;;;;;;333.02;270.90;;;19.40;42.40;;;;;;4790600;55;21493;-37
2022/01/15 20:52:46;;;;;;;335.48;269.62;;;19.40;42.40;;;;;;4754963;55;21816;-39
2022/01/15 20:57:48;;;;;;;331.35;266.38;;;19.40;42.40;;;;;;4737411;55;21042;-38
2022/01/15 21:02:49;;;;;;;331.92;268.33;;;19.40;42.30;;;;;;4753847;55;21089;-39
2022/01/15 21:07:51;;;;;;;326.65;268.08;;;19.40;42.30;;;;;;4753417;55;21105;-36
2022/01/15 21:12:52;;;;;;;327.15;265.25;;;19.40;42.30;;;;;;4739020;55;21041;-37
2022/01/15 21:17:53;;;;;;;334.80;269.67;;;19.40;42.30;;;;;;4753988;55;21543;-37
2022/01/15 21:22:57;;;;;;;329.17;268.98;;;19.40;42.20;;;;;;4767297;55;21137;-37
2022/01/15 21:27:58;;;;;;;332.25;271.83;;;19.40;42.20;;;;;;4738329;59;21018;-35
2022/01/15 21:33:00;;;;;;;332.75;270.75;;;19.40;42.20;;;;;;4741530;55;21022;-36
2022/01/15 21:38:01;;;;;;;331.50;267.35;;;19.40;42.20;;;;;;4740441;55;21077;-36
2022/01/15 21:43:02;;;;;;;327.45;264.48;;;19.40;42.10;;;;;;4737731;55;21009;-36
2022/01/15 21:48:03;;;;;;;332.83;269.60;;;19.40;42.10;;;;;;4748840;55;21017;-38
2022/01/15 21:53:04;;;;;;;326.90;263.70;;;19.40;42.00;;;;;;4747846;55;20995;-37
2022/01/15 21:58:05;;;;;;;322.42;259.90;;;19.40;42.00;;;;;;4780723;55;21508;-37
2022/01/15 22:03:06;;;;;;;323.70;261.23;;;19.40;42.00;;;;;;4737459;59;21042;-35
2022/01/15 22:08:07;;;;;;;320.95;258.50;;;19.40;42.00;;;;;;4751601;55;21037;-37
2022/01/15 22:13:10;;;;;;;321.87;262.08;;;19.40;41.90;;;;;;4777407;55;21066;-36
2022/01/15 22:18:12;;;;;;;319.67;258.00;;;19.40;41.90;;;;;;4782228;55;21507;-35
2022/01/15 22:23:13;;;;;;;326.85;261.02;;;19.40;41.80;;;;;;4740464;55;21584;-36
2022/01/15 22:28:14;;;;;;;323.02;261.75;;;19.40;41.80;;;;;;4756192;55;21014;-37
2022/01/15 22:33:15;;;;;;;329.55;260.95;;;19.40;41.80;;;;;;4740060;55;21006;-37
2022/01/15 22:38:16;;;;;;;322.45;257.67;;;19.30;41.70;;;;;;4774431;55;21504;-38
2022/01/15 22:43:17;;;;;;;316.35;253.70;;;19.40;41.80;;;;;;4771789;55;21574;-34
2022/01/15 22:48:19;;;;;;;315.60;252.70;;;19.40;41.70;;;;;;4748788;55;21022;-39
2022/01/15 22:53:21;;;;;;;325.98;259.37;;;19.40;41.70;;;;;;4747672;55;21081;-38
2022/01/15 22:58:22;;;;;;;320.05;256.15;;;19.40;41.60;;;;;;4744734;55;21102;-36
2022/01/15 23:03:24;;;;;;;317.45;252.73;;;19.30;41.50;;;;;;4737960;59;21128;-36
2022/01/15 23:08:25;;;;;;;327.80;255.25;;;19.30;41.50;;;;;;4772085;55;21057;-39
2022/01/15 23:14:01;;;;;;;320.77;254.70;;;19.30;41.50;;;;;;4762047;55;20998;-37
2022/01/15 23:19:03;;;;;;;324.92;259.40;;;19.30;41.40;;;;;;4757161;55;21551;-37
2022/01/15 23:24:04;;;;;;;315.58;255.05;;;19.30;41.30;;;;;;4765943;55;21464;-33
2022/01/15 23:29:05;;;;;;;312.20;250.23;;;19.30;41.30;;;;;;4762902;55;21025;-37
2022/01/15 23:34:06;;;;;;;316.08;254.85;;;19.30;41.30;;;;;;4767355;55;20990;-38
2022/01/15 23:39:07;;;;;;;326.83;257.35;;;19.30;41.20;;;;;;4771071;55;21029;-37
2022/01/15 23:44:20;;;;;;;319.80;252.30;;;19.30;41.20;;;;;;4752793;55;21607;-38
2022/01/15 23:49:24;;;;;;;321.45;258.00;;;19.30;41.20;;;;;;4781528;55;21661;-39
2022/01/15 23:54:25;;;;;;;317.00;249.85;;;19.30;41.10;;;;;;4747117;55;21006;-37
2022/01/15 23:59:26;;;;;;;314.10;249.15;;;19.30;41.10;;;;;;4743202;55;21488;-37
